GABS Airport Information

Runway Information
Runway 06 Length 8879 ft width 148 ft
Elevation 1187 ft Threshold 0 ft Heading 57
Runway 24 Length 8879 ft Width 148 ft
Elevation 1244 ft Threshold 0 ft Heading 237
Airport Frequencies
Type A/G Name A/G Frequency 667.3 MHZ
Type ACC Name ACC Frequency 119.1 MHZ
Type TWR Name TWR Frequency 118.3 MHZ
Airport Navaids
Type VOR-DME Name Bamako/Senou Frequency 113700 KHZ
Type NDB Name Bamako/Senou Frequency 301 KHZ
Airport Weather Information & NOTAM
ADDS - METARS form results

(0824 UTC 07 July 2020)
Data provider http://aviationweather.gov/metar/data/
 
METAR text: GABS 070800Z VRB02KT CAVOK 27/24 Q1013 NOSIG
Conditions at: GABS (BAMAKO/SENOU (MI, ML) observed 0800 UTC 07 July 2020
Temperature: 27.0°C (81°F)
Dewpoint: 24.0°C (75°F) [RH = 84%]
Pressure (altimeter): 29.91 inches Hg (1013.0 mb)
Winds: variable direction winds at 2 MPH (2 knots; 1.0 m/s)
Visibility: 6 or more miles (10+ km)
Ceiling: ceiling and visibility are OK
Clouds: unknown
Weather: no significant weather observed at this time

METAR text: GABS 070730Z 00000KT CAVOK 26/22 Q1013 NOSIG
Conditions at: GABS (BAMAKO/SENOU (MI, ML) observed 0730 UTC 07 July 2020
Temperature: 26.0°C (79°F)
Dewpoint: 22.0°C (72°F) [RH = 79%]
Pressure (altimeter): 29.91 inches Hg (1013.0 mb)
Winds: calm
Visibility: 6 or more miles (10+ km)
Ceiling: ceiling and visibility are OK
Clouds: unknown
Weather: no significant weather observed at this time

Forecast for: GABS (BAMAKO/SENOU (MI, ML)
Text: TAF GABS 070500Z 0706/0812 26008KT 9999 FEW025
Forecast period: 0600 UTC 07 July 2020 to 1200 UTC 08 July 2020
Forecast type: FROM: standard forecast or significant change
Winds: from the W (260 degrees) at 9 MPH (8 knots; 4.1 m/s)
Visibility: 6 or more miles 10+ km)
Ceiling: at least 12,000 feet AGL
Clouds: few clouds at 2500 feet AGL
Weather: no significant weather forecast for this period
Text: PROB30
Forecast period: 0800 to 1100 UTC 07 July 2020
Forecast type: TEMPORARY: The following changes expected for less than half the time period
Winds: from the ESE (120 degrees) at 23 MPH (20 knots; 10.3 m/s)
gusting to 46 MPH (40 knots; 20.6 m/s)
Visibility: 2.49 miles (4.01 km)
Ceiling: at least 12,000 feet AGL
Clouds: scattered clouds at 2500 feet AGL
few clouds at 3300 feet AGL
Weather: BLDU TSRA  (blowing dust, rain associated with thunderstorm(s))
Text: TEMPO 0708/0711 12020G40KT 4000 BLDU TSRA SCT025 FEW033CB
Forecast period: 1400 to 2300 UTC 07 July 2020
Forecast type: TEMPORARY: The following changes expected for less than half the time period
Winds: from the ENE (60 degrees) at 23 MPH (20 knots; 10.3 m/s)
gusting to 52 MPH (45 knots; 23.1 m/s)
Visibility: 1.86 miles (2.99 km)
Ceiling: at least 12,000 feet AGL
Clouds: scattered clouds at 2500 feet AGL
scattered clouds at 3300 feet AGL
Weather: BLDU SQ TSRA  (blowing dust, squal, rain associated with thunderstorm(s))